Time;durP1;ratioP1;P1;durP2;ratioP2;P2;SDS_P1;SDS_P2;PMS_P1;PMS_P2;Temp;Humidity;BMP_temperature;BMP_pressure;BME280_temperature;BME280_humidity;BME280_pressure;Samples;Min_cycle;Max_cycle;Signal;HPM_P1;HPM_P2
2023/04/18 00:01:40;;;;;;;16.92;10.77;;;7.50;99.90;;;;;;5051159;28;20453;-65
2023/04/18 00:04:07;;;;;;;15.05;10.35;;;7.50;99.90;;;;;;5051581;28;20060;-66
2023/04/18 00:06:34;;;;;;;15.32;10.55;;;7.50;99.90;;;;;;5051681;28;20045;-66
2023/04/18 00:09:00;;;;;;;16.65;10.60;;;7.40;99.90;;;;;;5051162;28;20108;-66
2023/04/18 00:11:26;;;;;;;16.70;10.07;;;7.40;99.90;;;;;;5051699;28;20137;-65
2023/04/18 00:13:52;;;;;;;17.27;10.43;;;7.30;99.90;;;;;;5051359;28;20037;-65
2023/04/18 00:16:18;;;;;;;18.10;11.15;;;7.30;99.90;;;;;;5051814;28;20041;-65
2023/04/18 00:18:43;;;;;;;16.27;9.65;;;7.30;99.90;;;;;;5050943;28;20094;-65
2023/04/18 00:21:09;;;;;;;18.52;10.82;;;7.30;99.90;;;;;;5051455;28;20468;-65
2023/04/18 00:23:34;;;;;;;16.50;10.77;;;7.20;99.90;;;;;;5051286;28;20041;-65
2023/04/18 00:26:00;;;;;;;16.80;10.43;;;7.10;99.90;;;;;;5051151;28;20037;-65
2023/04/18 00:28:26;;;;;;;15.18;10.45;;;7.00;99.90;;;;;;5051266;28;20045;-66
2023/04/18 00:30:52;;;;;;;16.08;11.00;;;7.00;99.90;;;;;;5051508;28;20040;-65
2023/04/18 00:33:18;;;;;;;15.98;10.95;;;6.90;99.90;;;;;;5051531;28;20555;-65
2023/04/18 00:35:43;;;;;;;15.10;10.75;;;6.90;99.90;;;;;;5051603;28;20098;-65
2023/04/18 00:38:09;;;;;;;19.25;11.27;;;6.80;99.90;;;;;;5051315;28;20472;-65
2023/04/18 00:40:35;;;;;;;18.67;12.18;;;6.80;99.90;;;;;;5051569;28;20442;-65
2023/04/18 00:43:01;;;;;;;17.92;11.45;;;6.70;99.90;;;;;;5051472;28;20032;-65
2023/04/18 00:45:27;;;;;;;16.45;11.75;;;6.70;99.90;;;;;;5051626;28;20032;-65
2023/04/18 00:47:53;;;;;;;17.65;11.70;;;6.60;99.90;;;;;;5051406;28;20465;-66
2023/04/18 00:50:19;;;;;;;17.02;11.93;;;6.50;99.90;;;;;;5050744;28;20119;-65
2023/04/18 00:52:46;;;;;;;16.58;11.55;;;6.50;99.90;;;;;;5050515;28;20473;-66
2023/04/18 00:55:12;;;;;;;19.73;11.68;;;6.50;99.90;;;;;;5051602;28;20118;-66
2023/04/18 00:57:37;;;;;;;17.15;10.73;;;6.40;99.90;;;;;;5051430;28;20045;-65
2023/04/18 01:00:11;;;;;;;17.15;10.68;;;6.40;99.90;;;;;;5051175;28;20052;-65
2023/04/18 01:02:38;;;;;;;16.40;10.98;;;6.40;99.90;;;;;;5051011;28;20187;-66
2023/04/18 01:05:04;;;;;;;18.17;11.13;;;6.50;99.90;;;;;;5051172;28;20513;-66
2023/04/18 01:07:32;;;;;;;18.92;12.13;;;6.50;99.90;;;;;;5051240;28;20048;-66
2023/04/18 01:09:58;;;;;;;19.40;11.45;;;6.50;99.90;;;;;;5051173;28;20044;-65
2023/04/18 01:12:23;;;;;;;18.98;11.85;;;6.50;99.90;;;;;;5050927;28;20159;-65
2023/04/18 01:14:49;;;;;;;20.65;11.45;;;6.50;99.90;;;;;;5051299;28;20146;-65
2023/04/18 01:17:15;;;;;;;20.10;12.07;;;6.40;99.90;;;;;;5052080;28;20033;-65
2023/04/18 01:19:40;;;;;;;16.88;11.38;;;6.40;99.90;;;;;;5054347;28;20036;-65
2023/04/18 01:22:06;;;;;;;17.70;11.75;;;6.50;99.90;;;;;;5054917;28;20045;-65
2023/04/18 01:24:32;;;;;;;16.92;11.25;;;6.40;99.90;;;;;;5054388;28;20037;-65
2023/04/18 01:26:57;;;;;;;20.70;11.30;;;6.40;99.90;;;;;;5054665;28;20044;-65
2023/04/18 01:29:24;;;;;;;22.02;11.77;;;6.40;99.90;;;;;;5054272;28;20455;-66
2023/04/18 01:31:49;;;;;;;17.83;11.77;;;6.30;99.90;;;;;;5053912;28;20037;-65
2023/04/18 01:34:18;;;;;;;19.73;12.20;;;6.30;99.90;;;;;;5054011;28;20040;-65
2023/04/18 01:36:44;;;;;;;17.77;11.68;;;6.30;99.90;;;;;;5054369;28;20384;-66
2023/04/18 01:39:11;;;;;;;18.38;12.02;;;6.30;99.90;;;;;;5054265;28;20470;-65
2023/04/18 01:41:37;;;;;;;18.15;11.23;;;6.30;99.90;;;;;;5053708;28;20091;-65
2023/04/18 01:44:03;;;;;;;20.85;12.10;;;6.30;99.90;;;;;;5053912;28;20478;-65
2023/04/18 01:46:29;;;;;;;17.05;10.52;;;6.40;99.90;;;;;;5054191;28;20132;-65
2023/04/18 01:48:55;;;;;;;14.80;10.70;;;6.30;99.90;;;;;;5069486;22;20505;-64
2023/04/18 01:51:21;;;;;;;21.00;12.02;;;6.30;99.90;;;;;;5052386;28;20044;-63
2023/04/18 01:53:47;;;;;;;16.90;11.63;;;6.40;99.90;;;;;;5061956;28;20043;-63
2023/04/18 01:56:12;;;;;;;19.13;11.00;;;6.40;99.90;;;;;;5071938;28;20036;-63
2023/04/18 01:58:38;;;;;;;19.95;12.32;;;6.40;99.90;;;;;;5073572;28;20538;-63
2023/04/18 02:01:04;;;;;;;17.83;11.27;;;6.40;99.90;;;;;;5064006;28;20074;-63
2023/04/18 02:03:29;;;;;;;19.42;11.82;;;6.40;99.90;;;;;;5051462;28;20120;-63
2023/04/18 02:05:55;;;;;;;18.33;10.00;;;6.40;99.90;;;;;;5053085;28;20040;-63
2023/04/18 02:08:20;;;;;;;18.13;10.80;;;6.40;99.90;;;;;;5053882;28;20068;-63
2023/04/18 02:10:46;;;;;;;17.65;11.18;;;6.40;99.90;;;;;;5053195;28;20091;-63
2023/04/18 02:13:13;;;;;;;22.30;11.18;;;6.40;99.90;;;;;;5053623;28;20055;-63
2023/04/18 02:15:38;;;;;;;18.80;10.85;;;6.50;99.90;;;;;;5053163;28;20070;-63
2023/04/18 02:18:05;;;;;;;18.40;11.55;;;6.50;99.90;;;;;;5053459;28;20056;-63
2023/04/18 02:20:32;;;;;;;17.38;11.35;;;6.50;99.90;;;;;;5053418;28;20044;-63
2023/04/18 02:22:58;;;;;;;20.15;11.35;;;6.50;99.90;;;;;;5053378;28;20134;-63
2023/04/18 02:25:25;;;;;;;19.67;11.02;;;6.50;99.90;;;;;;5053529;28;20545;-63
2023/04/18 02:27:52;;;;;;;17.83;11.75;;;6.50;99.90;;;;;;5052996;28;20406;-63
2023/04/18 02:30:18;;;;;;;18.38;10.82;;;6.50;99.90;;;;;;5052705;28;20491;-63
2023/04/18 02:32:43;;;;;;;18.23;11.20;;;6.50;99.90;;;;;;5052862;28;20065;-63
2023/04/18 02:35:11;;;;;;;17.23;11.02;;;6.50;99.90;;;;;;5035319;28;20033;-63
2023/04/18 02:37:37;;;;;;;20.40;11.48;;;6.50;99.90;;;;;;5053517;28;20049;-63
2023/04/18 02:40:03;;;;;;;17.73;10.80;;;6.50;99.90;;;;;;5053295;28;20399;-63
2023/04/18 02:42:30;;;;;;;18.10;10.93;;;6.50;99.90;;;;;;5035324;28;20082;-63
2023/04/18 02:44:56;;;;;;;19.80;12.30;;;6.50;99.90;;;;;;5035057;28;20044;-63
2023/04/18 02:47:21;;;;;;;20.88;11.45;;;6.50;99.90;;;;;;5053010;28;20399;-63
2023/04/18 02:49:47;;;;;;;18.77;11.45;;;6.40;99.90;;;;;;5052815;28;20043;-63
2023/04/18 02:52:13;;;;;;;18.40;11.07;;;6.40;99.90;;;;;;5052921;28;20392;-64
2023/04/18 02:54:38;;;;;;;16.38;11.35;;;6.40;99.90;;;;;;5052858;28;20040;-63
2023/04/18 02:57:04;;;;;;;18.15;11.55;;;6.40;99.90;;;;;;5052576;28;20041;-63
2023/04/18 02:59:30;;;;;;;18.42;11.63;;;6.40;99.90;;;;;;5034583;28;20388;-63
2023/04/18 03:01:55;;;;;;;20.67;11.68;;;6.30;99.90;;;;;;5034612;28;20052;-63
2023/04/18 03:04:21;;;;;;;17.92;11.15;;;6.30;99.90;;;;;;5052589;28;20041;-63
2023/04/18 03:06:47;;;;;;;20.20;11.93;;;6.30;99.90;;;;;;5034832;28;20041;-63
2023/04/18 03:09:13;;;;;;;20.83;12.05;;;6.30;99.90;;;;;;5052584;28;20037;-63
2023/04/18 03:11:39;;;;;;;21.40;12.25;;;6.30;99.90;;;;;;5034814;28;20033;-63
2023/04/18 03:14:05;;;;;;;19.30;11.93;;;6.30;99.90;;;;;;5051732;28;20037;-63
2023/04/18 03:16:31;;;;;;;21.20;12.77;;;6.30;99.90;;;;;;5052497;28;20037;-63
2023/04/18 03:18:56;;;;;;;21.45;12.95;;;6.30;99.90;;;;;;5052331;28;20040;-63
2023/04/18 03:21:22;;;;;;;20.63;13.05;;;6.30;99.90;;;;;;5052357;28;20410;-63
2023/04/18 03:23:48;;;;;;;21.80;11.32;;;6.30;99.90;;;;;;5051754;28;20045;-63
2023/04/18 03:26:14;;;;;;;19.58;11.80;;;6.30;99.90;;;;;;5052225;28;20427;-63
2023/04/18 03:28:40;;;;;;;21.52;13.48;;;6.30;99.90;;;;;;5034343;28;20048;-64
2023/04/18 03:31:05;;;;;;;18.63;11.38;;;6.30;99.90;;;;;;5051401;28;20439;-63
2023/04/18 03:33:31;;;;;;;19.23;12.18;;;6.40;99.90;;;;;;5052088;28;20605;-63
2023/04/18 03:35:56;;;;;;;23.75;12.32;;;6.40;99.90;;;;;;5052046;28;20406;-63
2023/04/18 03:38:22;;;;;;;17.48;11.57;;;6.40;99.90;;;;;;5051710;28;20055;-63
2023/04/18 03:40:48;;;;;;;18.80;11.30;;;6.40;99.90;;;;;;5051192;28;20041;-63
2023/04/18 03:43:13;;;;;;;19.15;11.95;;;6.40;99.90;;;;;;5052075;28;20512;-63
2023/04/18 03:45:39;;;;;;;17.75;11.00;;;6.40;99.90;;;;;;5051903;28;20043;-64
2023/04/18 03:48:06;;;;;;;18.42;10.30;;;6.50;99.90;;;;;;5051489;28;20041;-63
2023/04/18 03:50:32;;;;;;;19.73;11.40;;;6.50;99.90;;;;;;5051472;28;20399;-63
2023/04/18 03:52:57;;;;;;;20.10;11.82;;;6.50;99.90;;;;;;5051804;28;20072;-63
2023/04/18 03:55:25;;;;;;;15.77;10.38;;;6.60;99.90;;;;;;5051566;28;20530;-63
2023/04/18 03:57:50;;;;;;;16.35;10.20;;;6.60;99.90;;;;;;5051991;28;20049;-63
2023/04/18 04:00:16;;;;;;;19.40;11.60;;;6.60;99.90;;;;;;5050016;28;20041;-63
2023/04/18 04:02:42;;;;;;;18.38;10.60;;;6.60;99.90;;;;;;5051278;28;20051;-63
2023/04/18 04:05:08;;;;;;;19.92;11.60;;;6.60;99.90;;;;;;5050457;28;20116;-63
2023/04/18 04:07:34;;;;;;;15.60;10.38;;;6.70;99.90;;;;;;5051508;28;20120;-63
2023/04/18 04:10:00;;;;;;;18.70;11.35;;;6.70;99.90;;;;;;5051694;28;20398;-63
2023/04/18 04:12:26;;;;;;;18.67;10.95;;;6.70;99.90;;;;;;5050568;28;20059;-63
2023/04/18 04:14:52;;;;;;;22.45;10.77;;;6.70;99.90;;;;;;5051168;28;20033;-63
2023/04/18 04:17:18;;;;;;;18.10;10.80;;;6.70;99.90;;;;;;5051902;28;20040;-63
2023/04/18 04:19:43;;;;;;;17.10;10.15;;;6.70;99.90;;;;;;5051226;28;20044;-63
2023/04/18 04:22:09;;;;;;;17.42;10.68;;;6.70;99.90;;;;;;5051572;28;20040;-63
2023/04/18 04:24:37;;;;;;;18.10;10.20;;;6.70;99.90;;;;;;5051230;28;20410;-63
2023/04/18 04:27:03;;;;;;;17.60;11.25;;;6.70;99.90;;;;;;5051625;28;20068;-63
2023/04/18 04:29:30;;;;;;;17.45;11.70;;;6.70;99.90;;;;;;5050817;28;20052;-63
2023/04/18 04:31:55;;;;;;;18.98;11.57;;;6.70;99.90;;;;;;5033548;28;20044;-63
2023/04/18 04:34:21;;;;;;;18.38;10.82;;;6.70;99.90;;;;;;5051573;28;20037;-63
2023/04/18 04:36:47;;;;;;;18.23;11.68;;;6.70;99.90;;;;;;5051665;28;20079;-63
2023/04/18 04:39:13;;;;;;;17.60;10.45;;;6.70;99.90;;;;;;5033003;28;20041;-63
2023/04/18 04:41:39;;;;;;;20.70;12.25;;;6.70;99.90;;;;;;5050953;28;20064;-63
2023/04/18 04:44:05;;;;;;;24.83;12.80;;;6.70;99.90;;;;;;5051307;28;20040;-63
2023/04/18 04:46:32;;;;;;;21.98;12.75;;;6.80;99.90;;;;;;5050995;28;20081;-63
2023/04/18 04:48:58;;;;;;;23.10;12.73;;;6.70;99.90;;;;;;5051437;28;20060;-63
2023/04/18 04:51:24;;;;;;;21.95;13.02;;;6.80;99.90;;;;;;5033119;28;20079;-63
2023/04/18 04:53:50;;;;;;;19.23;11.40;;;6.70;99.90;;;;;;5037339;28;20072;-63
2023/04/18 04:56:16;;;;;;;21.42;12.63;;;6.80;99.90;;;;;;5055055;28;20080;-63
2023/04/18 04:58:41;;;;;;;23.63;13.55;;;6.80;99.90;;;;;;5055104;28;20075;-63
2023/04/18 05:01:08;;;;;;;24.00;13.02;;;6.80;99.90;;;;;;5054358;28;20060;-63
2023/04/18 05:03:35;;;;;;;24.45;12.95;;;6.80;99.90;;;;;;5054979;28;20045;-63
2023/04/18 05:06:02;;;;;;;23.92;11.90;;;6.70;99.90;;;;;;5054624;28;20398;-63
2023/04/18 05:08:27;;;;;;;21.60;12.82;;;6.70;99.90;;;;;;5054969;28;20037;-64
2023/04/18 05:10:54;;;;;;;23.98;12.10;;;6.70;99.90;;;;;;5054501;28;20548;-64
2023/04/18 05:13:19;;;;;;;20.60;12.60;;;6.70;99.90;;;;;;5055058;28;20086;-64
2023/04/18 05:15:45;;;;;;;24.27;12.73;;;6.70;99.90;;;;;;5037069;28;20041;-63
2023/04/18 05:18:11;;;;;;;22.83;12.20;;;6.70;99.90;;;;;;5054983;28;20040;-64
2023/04/18 05:20:37;;;;;;;23.13;13.20;;;6.70;99.90;;;;;;5054376;28;20537;-64
2023/04/18 05:23:02;;;;;;;27.77;13.50;;;6.70;99.90;;;;;;5036814;28;20049;-63
2023/04/18 05:25:28;;;;;;;22.92;13.88;;;6.70;99.90;;;;;;5036064;28;20055;-63
2023/04/18 05:27:54;;;;;;;23.08;12.63;;;6.70;99.90;;;;;;5054850;28;20056;-63
2023/04/18 05:30:19;;;;;;;19.90;12.10;;;6.70;99.90;;;;;;5054567;28;20059;-63
2023/04/18 05:32:45;;;;;;;23.92;13.15;;;6.70;99.90;;;;;;5054468;28;20450;-64
2023/04/18 05:35:10;;;;;;;24.10;12.10;;;6.70;99.90;;;;;;5054254;28;20076;-64
2023/04/18 05:37:36;;;;;;;24.45;13.40;;;6.70;99.90;;;;;;5054428;28;20080;-63
2023/04/18 05:40:03;;;;;;;21.63;12.93;;;6.70;99.90;;;;;;5054254;28;20041;-63
2023/04/18 05:42:29;;;;;;;25.92;13.48;;;6.70;99.90;;;;;;5054175;28;20041;-63
2023/04/18 05:44:55;;;;;;;21.67;13.43;;;6.70;99.90;;;;;;5054377;28;20392;-63
2023/04/18 05:47:22;;;;;;;23.88;13.70;;;6.70;99.90;;;;;;5054368;28;20405;-63
2023/04/18 05:49:48;;;;;;;21.05;11.80;;;6.70;99.90;;;;;;5053638;28;20041;-63
2023/04/18 05:52:13;;;;;;;21.10;13.00;;;6.70;99.90;;;;;;5053580;28;20120;-63
2023/04/18 05:54:40;;;;;;;22.73;12.35;;;6.80;99.90;;;;;;5053923;28;20041;-63
2023/04/18 05:57:05;;;;;;;23.58;13.02;;;6.80;99.90;;;;;;5054255;28;20666;-63
2023/04/18 05:59:31;;;;;;;19.33;12.75;;;6.80;99.90;;;;;;5053444;28;20101;-63
2023/04/18 06:01:56;;;;;;;21.52;12.65;;;6.80;99.90;;;;;;5053577;28;20040;-63
2023/04/18 06:04:22;;;;;;;23.70;12.98;;;6.80;99.90;;;;;;5053719;28;20033;-63
2023/04/18 06:06:47;;;;;;;21.92;11.77;;;6.90;99.90;;;;;;5036203;28;20041;-63
2023/04/18 06:09:13;;;;;;;23.58;13.93;;;6.90;99.90;;;;;;5053741;28;20033;-63
2023/04/18 06:11:38;;;;;;;23.65;13.95;;;6.90;99.90;;;;;;5053790;28;20179;-63
2023/04/18 06:14:04;;;;;;;21.63;13.02;;;7.00;99.90;;;;;;5053663;28;20037;-63
2023/04/18 06:16:29;;;;;;;23.50;13.70;;;7.00;99.90;;;;;;5053524;28;20118;-63
2023/04/18 06:18:56;;;;;;;21.73;12.75;;;7.00;99.90;;;;;;5053734;28;20033;-63
2023/04/18 06:21:22;;;;;;;22.10;11.80;;;7.10;99.90;;;;;;5053496;28;20477;-63
2023/04/18 06:23:47;;;;;;;23.13;13.50;;;7.10;99.90;;;;;;5053487;28;20120;-63
2023/04/18 06:26:13;;;;;;;25.98;13.68;;;7.10;99.90;;;;;;5053448;28;20048;-63
2023/04/18 06:28:39;;;;;;;21.83;13.00;;;7.20;99.90;;;;;;5053542;28;20036;-63
2023/04/18 06:31:04;;;;;;;21.23;12.63;;;7.20;99.90;;;;;;5053235;28;20045;-63
2023/04/18 06:33:30;;;;;;;21.58;12.93;;;7.20;99.90;;;;;;5035510;28;20037;-63
2023/04/18 06:35:56;;;;;;;23.00;13.52;;;7.30;99.90;;;;;;5053656;28;20032;-63
2023/04/18 06:38:21;;;;;;;21.83;12.90;;;7.40;99.90;;;;;;5053207;28;20041;-63
2023/04/18 06:40:47;;;;;;;26.30;14.43;;;7.40;99.90;;;;;;5053098;28;20048;-63
2023/04/18 06:43:12;;;;;;;21.83;14.63;;;7.50;99.90;;;;;;5052996;28;20045;-63
2023/04/18 06:45:38;;;;;;;23.50;12.38;;;7.70;99.90;;;;;;5053097;28;20052;-63
2023/04/18 06:48:04;;;;;;;24.10;12.75;;;7.80;99.90;;;;;;5052588;28;20044;-63
2023/04/18 06:50:30;;;;;;;22.77;14.52;;;8.00;99.90;;;;;;5053280;28;20151;-63
2023/04/18 06:52:56;;;;;;;21.42;12.73;;;8.10;99.90;;;;;;5052541;28;20063;-63
2023/04/18 06:55:21;;;;;;;21.67;11.52;;;8.20;99.90;;;;;;5052780;28;20457;-63
2023/04/18 06:57:47;;;;;;;22.80;13.20;;;8.20;99.90;;;;;;5053135;28;20431;-63
2023/04/18 07:00:13;;;;;;;22.10;12.60;;;8.20;99.90;;;;;;5052928;28;20106;-63
2023/04/18 07:02:39;;;;;;;21.25;12.63;;;8.30;99.90;;;;;;5052681;28;20037;-63
2023/04/18 07:05:06;;;;;;;21.42;12.38;;;8.30;99.90;;;;;;5052605;28;20044;-63
2023/04/18 07:07:32;;;;;;;21.48;13.25;;;8.40;99.90;;;;;;5052598;28;20081;-63
2023/04/18 07:09:58;;;;;;;23.75;13.52;;;8.50;99.90;;;;;;5052517;28;20433;-62
2023/04/18 07:12:24;;;;;;;22.33;13.38;;;8.60;99.90;;;;;;5052540;28;20090;-63
2023/04/18 07:14:50;;;;;;;20.75;12.25;;;8.60;99.90;;;;;;5051546;28;20456;-63
2023/04/18 07:17:16;;;;;;;20.35;12.77;;;8.40;99.90;;;;;;5052342;28;20045;-63
2023/04/18 07:19:42;;;;;;;17.80;11.23;;;8.40;99.90;;;;;;5052440;28;20041;-63
2023/04/18 07:22:08;;;;;;;17.63;10.70;;;8.50;99.90;;;;;;5051654;28;20044;-63
2023/04/18 07:24:34;;;;;;;18.77;11.75;;;8.60;99.90;;;;;;5052201;28;20029;-63
2023/04/18 07:27:00;;;;;;;17.30;11.38;;;8.70;99.90;;;;;;5051964;28;20044;-63
2023/04/18 07:29:26;;;;;;;17.80;11.27;;;8.80;99.90;;;;;;5052421;28;20048;-63
2023/04/18 07:31:51;;;;;;;19.38;10.73;;;8.90;99.90;;;;;;5051422;28;20033;-63
2023/04/18 07:34:17;;;;;;;16.50;10.57;;;9.00;99.90;;;;;;5052152;28;20033;-63
2023/04/18 07:36:43;;;;;;;14.95;9.77;;;9.10;99.90;;;;;;5052143;28;20040;-63
2023/04/18 07:39:08;;;;;;;18.70;11.30;;;9.10;99.90;;;;;;5051860;28;20185;-63
2023/04/18 07:41:34;;;;;;;18.35;11.13;;;9.10;99.90;;;;;;5051928;28;20048;-63
2023/04/18 07:44:02;;;;;;;15.30;8.40;;;9.20;99.90;;;;;;5052120;28;20040;-63
2023/04/18 07:46:31;;;;;;;16.63;9.38;;;9.30;99.90;;;;;;5051919;28;20475;-63
2023/04/18 07:48:56;;;;;;;15.85;10.02;;;9.10;99.90;;;;;;5051528;28;20041;-66
2023/04/18 07:51:25;;;;;;;19.10;11.40;;;9.20;99.90;;;;;;5051671;28;20049;-63
2023/04/18 07:53:51;;;;;;;16.90;10.15;;;9.30;99.90;;;;;;5033869;28;20048;-63
2023/04/18 07:56:16;;;;;;;16.80;9.48;;;9.60;99.90;;;;;;5051523;28;20040;-63
2023/04/18 07:58:42;;;;;;;19.30;11.13;;;9.70;99.90;;;;;;5051596;28;20047;-63
2023/04/18 08:01:12;;;;;;;19.35;11.63;;;9.80;99.90;;;;;;5051693;28;20114;-63
2023/04/18 08:03:37;;;;;;;16.83;10.98;;;10.00;99.90;;;;;;5052020;28;20072;-63
2023/04/18 08:06:04;;;;;;;16.27;10.00;;;9.90;99.90;;;;;;5051611;28;20064;-63
2023/04/18 08:08:30;;;;;;;20.08;11.32;;;9.70;99.90;;;;;;5051748;28;20106;-63
2023/04/18 08:10:55;;;;;;;18.88;11.73;;;9.60;99.90;;;;;;5051652;28;20040;-63
2023/04/18 08:13:21;;;;;;;20.17;11.98;;;9.50;99.90;;;;;;5051695;28;20036;-63
2023/04/18 08:15:46;;;;;;;19.33;12.05;;;9.50;99.90;;;;;;5051738;28;20040;-63
2023/04/18 08:18:12;;;;;;;18.98;11.20;;;9.50;99.90;;;;;;5051737;28;20041;-63
2023/04/18 08:20:38;;;;;;;16.98;10.73;;;9.60;99.90;;;;;;5050936;28;20048;-63
2023/04/18 08:23:03;;;;;;;18.23;11.65;;;9.60;99.90;;;;;;5051446;28;20037;-63
2023/04/18 08:25:30;;;;;;;18.02;12.57;;;9.60;99.90;;;;;;5051938;28;20045;-63
2023/04/18 08:27:56;;;;;;;20.48;12.05;;;9.60;99.90;;;;;;5055701;28;20178;-63
2023/04/18 08:30:22;;;;;;;21.70;12.32;;;9.70;99.90;;;;;;5055114;28;20041;-63
2023/04/18 08:32:48;;;;;;;17.00;11.63;;;9.60;99.90;;;;;;5055621;28;20040;-63
2023/04/18 08:35:14;;;;;;;18.38;11.90;;;9.60;99.90;;;;;;5055504;28;20041;-63
2023/04/18 08:37:39;;;;;;;16.02;10.60;;;9.60;99.90;;;;;;5055360;28;20052;-63
2023/04/18 08:40:06;;;;;;;21.67;11.75;;;9.60;99.90;;;;;;5055684;28;20041;-63
2023/04/18 08:42:32;;;;;;;17.95;11.35;;;9.60;99.90;;;;;;5020910;28;20076;-63
2023/04/18 08:44:59;;;;;;;20.48;12.60;;;9.60;99.90;;;;;;5055394;28;20045;-63
2023/04/18 08:47:27;;;;;;;19.63;11.77;;;9.50;99.90;;;;;;5055336;28;20107;-63
2023/04/18 08:49:53;;;;;;;17.70;11.63;;;9.60;99.90;;;;;;5054976;28;20044;-63
2023/04/18 08:52:21;;;;;;;21.58;12.30;;;9.60;99.90;;;;;;5055287;28;20116;-63
2023/04/18 08:54:49;;;;;;;20.27;11.93;;;9.70;99.90;;;;;;5054952;28;20048;-63
2023/04/18 08:57:15;;;;;;;18.38;12.23;;;9.70;99.90;;;;;;5054709;28;20466;-63
2023/04/18 08:59:44;;;;;;;20.42;12.23;;;9.80;99.90;;;;;;5037223;28;20203;-63
2023/04/18 09:02:11;;;;;;;18.35;10.73;;;10.00;99.90;;;;;;5036415;28;20037;-63
2023/04/18 09:04:44;;;;;;;18.00;11.20;;;10.30;99.90;;;;;;5054759;28;20044;-63
2023/04/18 09:07:12;;;;;;;23.40;13.75;;;10.40;99.90;;;;;;5055104;28;20079;-63
2023/04/18 09:09:51;;;;;;;21.23;12.90;;;10.20;99.90;;;;;;5055077;28;20076;-63
2023/04/18 09:12:25;;;;;;;19.25;12.32;;;10.10;99.90;;;;;;5054676;28;20052;-63
2023/04/18 09:14:56;;;;;;;19.95;11.82;;;10.10;99.90;;;;;;5054517;28;20044;-63
2023/04/18 09:17:31;;;;;;;;;;;10.10;99.90;;;;;;5055306;28;20091;-63
2023/04/18 09:19:57;;;;;;;20.30;12.35;;;9.90;99.90;;;;;;5054807;28;20358;-63
2023/04/18 09:22:23;;;;;;;19.10;12.27;;;10.00;99.90;;;;;;5054511;28;20041;-63
2023/04/18 09:24:52;;;;;;;21.42;12.65;;;10.20;99.90;;;;;;5054628;28;20041;-63
2023/04/18 09:27:21;;;;;;;22.00;13.13;;;10.60;99.90;;;;;;5054416;28;20041;-63
2023/04/18 09:29:49;;;;;;;18.13;11.07;;;10.90;99.90;;;;;;5054758;28;20072;-62
2023/04/18 09:32:23;;;;;;;19.85;10.30;;;11.10;99.90;;;;;;5054446;28;20112;-63
2023/04/18 09:34:56;;;;;;;19.08;12.43;;;11.20;99.90;;;;;;5054447;28;20045;-63
2023/04/18 09:37:23;;;;;;;19.75;12.43;;;11.30;99.90;;;;;;5053814;28;20483;-63
2023/04/18 09:39:51;;;;;;;22.77;12.43;;;11.50;99.90;;;;;;5054232;28;20045;-63
2023/04/18 09:42:18;;;;;;;21.40;11.98;;;11.60;99.90;;;;;;5054322;28;20041;-63
2023/04/18 09:45:04;;;;;;;22.00;12.20;;;11.60;99.90;;;;;;5036474;28;20450;-63
2023/04/18 09:47:33;;;;;;;20.92;12.30;;;11.60;99.90;;;;;;5054305;28;20439;-63
2023/04/18 09:50:03;;;;;;;23.00;11.45;;;11.60;99.90;;;;;;5054044;28;20072;-63
2023/04/18 09:52:40;;;;;;;18.92;12.00;;;11.60;99.90;;;;;;5035791;28;20045;-63
2023/04/18 09:55:08;;;;;;;18.67;11.82;;;11.90;99.90;;;;;;5054285;28;20083;-63
2023/04/18 09:57:35;;;;;;;20.88;11.82;;;12.10;99.90;;;;;;5054198;28;20051;-63
2023/04/18 10:00:23;;;;;;;19.30;11.80;;;12.20;99.90;;;;;;5054090;28;20049;-63
2023/04/18 10:02:50;;;;;;;18.13;11.63;;;12.10;99.90;;;;;;5053684;28;20407;-63
2023/04/18 10:05:17;;;;;;;17.73;10.77;;;12.10;99.90;;;;;;5036142;28;20048;-63
2023/04/18 10:07:45;;;;;;;17.48;11.15;;;11.80;99.90;;;;;;5053005;28;20053;-63
2023/04/18 10:10:12;;;;;;;17.15;9.98;;;11.70;99.90;;;;;;5053217;28;20530;-63
2023/04/18 10:12:38;;;;;;;16.35;10.88;;;11.60;99.90;;;;;;5053481;28;20402;-63
2023/04/18 10:15:06;;;;;;;13.95;9.93;;;11.80;99.90;;;;;;5053495;28;20037;-63
2023/04/18 10:17:53;;;;;;;16.23;10.70;;;12.10;99.90;;;;;;5053828;28;20033;-63
2023/04/18 10:20:22;;;;;;;19.70;11.43;;;12.30;99.90;;;;;;5053805;28;20037;-63
2023/04/18 10:22:49;;;;;;;18.05;10.35;;;12.40;99.90;;;;;;5035506;28;20120;-63
2023/04/18 10:25:39;;;;;;;19.02;12.35;;;12.30;99.90;;;;;;5053506;28;20052;-63
2023/04/18 10:28:08;;;;;;;18.95;12.52;;;12.30;99.90;;;;;;5053712;28;20044;-63
2023/04/18 10:30:40;;;;;;;20.67;13.82;;;12.30;99.90;;;;;;5035728;28;20071;-63
2023/04/18 10:33:26;;;;;;;18.08;12.93;;;12.50;99.90;;;;;;5053546;28;20375;-63
2023/04/18 10:36:11;;;;;;;22.85;13.50;;;12.80;99.90;;;;;;5053228;28;20043;-63
2023/04/18 10:38:43;;;;;;;19.67;13.27;;;12.90;99.90;;;;;;5053120;28;20044;-63
2023/04/18 10:41:25;;;;;;;20.75;12.55;;;13.00;99.90;;;;;;5053254;28;20395;-63
2023/04/18 10:44:08;;;;;;;19.30;11.23;;;12.80;99.90;;;;;;5052928;28;20048;-64
2023/04/18 10:46:57;;;;;;;15.77;9.75;;;12.60;99.90;;;;;;5053043;28;20056;-63
2023/04/18 10:49:22;;;;;;;17.17;10.85;;;12.60;99.90;;;;;;5051550;28;20041;-63
2023/04/18 10:51:59;;;;;;;16.40;12.43;;;12.50;99.90;;;;;;5052503;28;20044;-63
2023/04/18 10:54:49;;;;;;;20.65;11.00;;;12.50;99.90;;;;;;5052726;28;20132;-63
2023/04/18 10:57:15;;;;;;;18.23;12.40;;;12.50;99.90;;;;;;5052884;28;20179;-63
2023/04/18 10:59:46;;;;;;;15.38;9.70;;;12.40;99.90;;;;;;5052599;28;20124;-63
2023/04/18 11:02:29;;;;;;;15.90;11.65;;;12.30;99.90;;;;;;5052242;28;20116;-63
2023/04/18 11:04:56;;;;;;;15.60;11.18;;;12.50;99.90;;;;;;5052410;28;20525;-63
2023/04/18 11:07:38;;;;;;;17.10;11.85;;;12.50;99.90;;;;;;5052599;28;20170;-64
2023/04/18 11:10:05;;;;;;;14.63;9.88;;;12.50;99.90;;;;;;5052318;28;20041;-64
2023/04/18 11:12:32;;;;;;;17.20;11.95;;;12.50;99.90;;;;;;5052383;28;20044;-64
2023/04/18 11:15:00;;;;;;;17.05;12.32;;;12.50;99.90;;;;;;5034804;28;20136;-64
2023/04/18 11:17:28;;;;;;;19.83;12.80;;;12.60;99.90;;;;;;5034996;28;20060;-64
2023/04/18 11:20:07;;;;;;;18.15;11.60;;;12.50;99.90;;;;;;5051506;28;20056;-64
2023/04/18 11:22:55;;;;;;;17.60;13.05;;;12.50;99.90;;;;;;5052441;28;20084;-64
2023/04/18 11:25:43;;;;;;;18.05;11.93;;;12.80;99.90;;;;;;5052605;28;20036;-63
2023/04/18 11:28:12;;;;;;;16.60;11.55;;;13.00;99.90;;;;;;5034424;28;20040;-64
2023/04/18 11:30:40;;;;;;;21.02;13.15;;;13.00;99.90;;;;;;5052332;28;20033;-64
2023/04/18 11:33:10;;;;;;;16.40;11.00;;;13.30;99.90;;;;;;5052437;28;20402;-63
2023/04/18 11:35:37;;;;;;;14.98;11.27;;;13.30;99.90;;;;;;5052369;28;20494;-63
2023/04/18 11:38:04;;;;;;;19.55;11.82;;;13.30;99.90;;;;;;5052252;28;20048;-63
2023/04/18 11:40:30;;;;;;;18.52;11.45;;;13.20;99.90;;;;;;5052043;28;20060;-63
2023/04/18 11:42:59;;;;;;;16.50;10.88;;;12.90;99.90;;;;;;5051944;28;20064;-63
2023/04/18 11:45:25;;;;;;;15.05;10.65;;;13.00;99.90;;;;;;5052281;28;20044;-63
2023/04/18 11:47:56;;;;;;;14.80;10.52;;;13.20;99.90;;;;;;5052125;28;20379;-63
2023/04/18 11:50:21;;;;;;;15.52;10.82;;;13.10;99.90;;;;;;5033966;28;20040;-63
2023/04/18 11:52:50;;;;;;;15.07;11.40;;;13.10;99.90;;;;;;5051711;28;20091;-64
2023/04/18 11:55:21;;;;;;;15.98;9.38;;;12.90;99.90;;;;;;5051843;28;20049;-63
2023/04/18 11:57:53;;;;;;;;;;;12.90;99.90;;;;;;5052637;28;20033;-63
2023/04/18 12:00:36;;;;;;;16.23;10.43;;;12.90;99.90;;;;;;5051021;28;19916;-63
2023/04/18 12:03:09;;;;;;;16.95;10.65;;;13.10;99.90;;;;;;5051951;28;20086;-63
2023/04/18 12:05:35;;;;;;;16.65;12.20;;;13.10;99.90;;;;;;5051417;28;20486;-63
2023/04/18 12:08:10;;;;;;;15.82;11.90;;;13.20;99.90;;;;;;5051536;28;20047;-63
2023/04/18 12:10:36;;;;;;;17.23;13.25;;;13.40;99.90;;;;;;5051393;28;20033;-64
2023/04/18 12:13:06;;;;;;;17.58;11.90;;;13.70;99.90;;;;;;5051723;28;20051;-63
2023/04/18 12:15:32;;;;;;;14.57;11.53;;;13.80;99.90;;;;;;5051905;28;20041;-63
2023/04/18 12:18:02;;;;;;;17.08;11.77;;;13.90;99.90;;;;;;5051281;28;20045;-64
2023/04/18 12:20:35;;;;;;;15.30;11.57;;;14.00;99.90;;;;;;5051437;28;20572;-63
2023/04/18 12:23:02;;;;;;;15.85;12.18;;;14.00;99.90;;;;;;5033790;28;20612;-63
2023/04/18 12:25:28;;;;;;;16.10;11.95;;;14.00;99.90;;;;;;5033354;28;20083;-64
2023/04/18 12:28:00;;;;;;;17.38;12.05;;;13.90;99.90;;;;;;5051492;28;20499;-63
2023/04/18 12:30:31;;;;;;;15.27;11.32;;;14.00;99.90;;;;;;5033696;28;20033;-63
2023/04/18 12:32:58;;;;;;;16.83;12.25;;;14.10;99.90;;;;;;5050869;28;20032;-63
2023/04/18 12:35:25;;;;;;;17.17;12.32;;;14.10;99.90;;;;;;5051336;28;20045;-64
2023/04/18 12:37:52;;;;;;;16.15;12.02;;;14.10;99.90;;;;;;5051488;28;20044;-63